Aviation Digital Data Service (ADDS)

Output produced by TAFs form (2347 UTC 18 July 2018)
found at http://www.aviationweather.gov/adds/tafs/
 
RJNT 182300Z VRB02KT CAVOK 29/22 Q1011
TAF RJNT 182305Z 1900/2006 34006KT 9999 FEW030 
     BECMG 1912/1915 18004KT 
     BECMG 2000/2003 34006KT